createdAt,value
2023-01-04T00:03:16.149Z,8.70
2023-01-04T00:08:17.489Z,4.90
2023-01-04T00:13:19.214Z,4.40
2023-01-04T00:18:20.468Z,15.40
2023-01-04T00:23:21.745Z,10.30
2023-01-04T00:28:23.094Z,11.00
2023-01-04T00:33:24.347Z,14.90
2023-01-04T00:38:25.650Z,12.50
2023-01-04T00:43:27.483Z,11.40
2023-01-04T00:48:29.895Z,11.10
2023-01-04T00:53:31.163Z,9.50
2023-01-04T00:58:32.413Z,9.10
2023-01-04T01:03:38.522Z,10.60
2023-01-04T01:08:40.304Z,12.20
2023-01-04T01:13:41.911Z,8.50
2023-01-04T01:18:44.792Z,10.80
2023-01-04T01:23:47.097Z,11.50
2023-01-04T01:28:49.012Z,11.00
2023-01-04T01:33:52.113Z,10.90
2023-01-04T01:38:54.403Z,12.30
2023-01-04T01:44:01.704Z,11.00
2023-01-04T01:49:42.319Z,11.10
2023-01-04T01:54:59.157Z,12.00
2023-01-04T02:00:08.331Z,12.10
2023-01-04T02:05:10.437Z,7.60
2023-01-04T02:10:12.235Z,9.70
2023-01-04T02:15:13.923Z,13.80
2023-01-04T02:20:20.895Z,12.60
2023-01-04T02:25:43.692Z,11.20
2023-01-04T02:30:48.290Z,14.20
2023-01-04T02:35:58.711Z,21.50
2023-01-04T02:41:29.081Z,29.90
2023-01-04T02:46:35.798Z,37.00
2023-01-04T02:51:37.870Z,26.10
2023-01-04T02:57:04.561Z,38.10
2023-01-04T03:02:31.384Z,56.70
2023-01-04T03:07:54.585Z,54.00
2023-01-04T03:13:21.147Z,52.80
2023-01-04T03:18:27.118Z,27.80
2023-01-04T03:23:52.915Z,21.40
2023-01-04T03:29:18.091Z,14.50
2023-01-04T03:34:38.277Z,9.40
2023-01-04T03:40:19.994Z,10.10
2023-01-04T03:45:48.528Z,11.80
2023-01-04T03:51:03.622Z,8.60
2023-01-04T03:56:07.740Z,9.60
2023-01-04T04:01:09.834Z,15.40
2023-01-04T04:06:30.399Z,12.40
2023-01-04T04:11:32.103Z,12.60
2023-01-04T04:16:33.579Z,11.90
2023-01-04T04:21:36.289Z,11.10
2023-01-04T04:26:37.754Z,12.40
2023-01-04T04:31:39.132Z,14.40
2023-01-04T04:36:40.438Z,8.50
2023-01-04T04:41:42.042Z,12.40
2023-01-04T04:46:44.690Z,13.70
2023-01-04T04:51:46.614Z,10.50
2023-01-04T04:56:49.033Z,16.20
2023-01-04T05:01:50.541Z,19.10
2023-01-04T05:06:52.259Z,13.60
2023-01-04T05:12:11.777Z,14.40
2023-01-04T05:17:13.014Z,11.90
2023-01-04T05:22:14.324Z,14.20
2023-01-04T05:27:15.906Z,13.60
2023-01-04T05:32:17.182Z,13.90
2023-01-04T05:37:18.809Z,15.80
2023-01-04T05:42:27.224Z,13.60
2023-01-04T05:47:29.106Z,21.00
2023-01-04T05:52:30.818Z,20.30
2023-01-04T05:57:32.074Z,18.90
2023-01-04T06:02:33.988Z,20.30
2023-01-04T06:07:35.611Z,16.60
2023-01-04T06:12:37.619Z,17.30
2023-01-04T06:17:39.370Z,19.40
2023-01-04T06:22:40.967Z,18.50
2023-01-04T06:27:42.265Z,19.80
2023-01-04T06:32:43.544Z,21.40
2023-01-04T06:37:44.861Z,25.60
2023-01-04T06:42:46.342Z,19.10
2023-01-04T06:47:47.692Z,14.40
2023-01-04T06:52:49.006Z,21.20
2023-01-04T06:57:53.931Z,16.30
2023-01-04T07:03:12.781Z,17.50
2023-01-04T07:08:16.550Z,19.70
2023-01-04T07:13:17.957Z,20.30
2023-01-04T07:18:19.252Z,13.90
2023-01-04T07:23:20.733Z,14.60
2023-01-04T07:28:40.693Z,20.40
2023-01-04T07:33:42.079Z,16.60
2023-01-04T07:38:43.642Z,19.90
2023-01-04T07:43:45.319Z,19.40
2023-01-04T07:48:46.798Z,17.00
2023-01-04T07:53:48.385Z,14.80
2023-01-04T07:58:49.800Z,17.20
2023-01-04T08:03:52.693Z,17.00
2023-01-04T08:08:54.018Z,18.80
2023-01-04T08:13:55.347Z,25.20
2023-01-04T08:19:11.329Z,19.40
2023-01-04T08:24:17.896Z,20.20
2023-01-04T08:29:19.555Z,15.50
2023-01-04T08:34:20.877Z,17.80
2023-01-04T08:39:22.267Z,18.00
2023-01-04T08:44:24.839Z,20.30
2023-01-04T08:49:26.270Z,16.40
2023-01-04T08:54:27.643Z,16.30
2023-01-04T08:59:29.065Z,20.30
2023-01-04T09:04:30.664Z,17.20
2023-01-04T09:09:32.080Z,18.50
2023-01-04T09:14:34.815Z,18.60
2023-01-04T09:19:36.261Z,17.60
2023-01-04T09:24:37.697Z,15.00
2023-01-04T09:29:38.951Z,14.30
2023-01-04T09:34:40.226Z,13.80
2023-01-04T09:39:41.852Z,9.90
2023-01-04T09:45:22.726Z,9.20
2023-01-04T09:50:23.384Z,16.40
2023-01-04T09:55:37.316Z,12.00
2023-01-04T10:00:46.361Z,16.40
2023-01-04T10:05:48.127Z,19.40
2023-01-04T10:11:11.083Z,12.50
2023-01-04T10:17:01.238Z,10.30
2023-01-04T10:22:00.665Z,13.90
2023-01-04T10:27:11.157Z,16.00
2023-01-04T10:32:21.870Z,16.40
2023-01-04T10:37:29.830Z,13.20
2023-01-04T10:42:38.834Z,11.60
2023-01-04T10:48:07.077Z,11.30
2023-01-04T10:53:35.301Z,14.10
2023-01-04T10:58:47.150Z,10.20
2023-01-04T11:03:51.611Z,10.30
2023-01-04T11:08:58.865Z,9.70
2023-01-04T11:14:00.890Z,11.40
2023-01-04T11:19:06.681Z,11.80
2023-01-04T11:29:44.591Z,15.60
2023-01-04T11:34:47.678Z,15.90
2023-01-04T11:39:49.015Z,13.00
2023-01-04T11:45:35.225Z,14.80
2023-01-04T11:50:45.157Z,15.70
2023-01-04T11:55:46.418Z,11.90
2023-01-04T12:00:53.407Z,11.70
2023-01-04T12:05:55.262Z,16.30
2023-01-04T12:10:59.486Z,9.50
2023-01-04T12:16:13.499Z,10.70
2023-01-04T12:21:21.441Z,12.80
2023-01-04T12:26:23.026Z,13.20
2023-01-04T12:31:27.469Z,17.40
2023-01-04T12:36:47.700Z,13.60
2023-01-04T12:42:06.868Z,14.70
2023-01-04T12:47:48.663Z,11.60
2023-01-04T12:53:11.247Z,11.10
2023-01-04T12:58:58.571Z,11.50
2023-01-04T13:04:02.542Z,13.00
2023-01-04T13:09:23.650Z,10.80
2023-01-04T13:14:48.466Z,11.90
2023-01-04T13:19:50.196Z,17.30
2023-01-04T13:24:52.389Z,14.80
2023-01-04T13:29:54.397Z,14.50
2023-01-04T13:35:00.889Z,13.40
2023-01-04T13:40:12.485Z,14.20
2023-01-04T13:45:45.591Z,12.50
2023-01-04T13:51:05.844Z,12.40
2023-01-04T13:56:29.174Z,9.50
2023-01-04T14:01:36.548Z,16.60
2023-01-04T14:06:46.479Z,12.40
2023-01-04T14:12:04.074Z,14.00
2023-01-04T14:17:08.278Z,13.20
2023-01-04T14:22:36.268Z,12.90
2023-01-04T14:27:44.642Z,10.60
2023-01-04T14:33:11.264Z,12.30
2023-01-04T14:38:18.268Z,7.60
2023-01-04T14:43:45.976Z,13.40
2023-01-04T14:48:47.221Z,13.40
2023-01-04T14:53:50.302Z,15.40
2023-01-04T14:58:51.539Z,11.00
2023-01-04T15:03:52.817Z,13.30
2023-01-04T15:08:54.291Z,14.40
2023-01-04T15:13:55.600Z,10.00
2023-01-04T15:18:56.931Z,18.20
2023-01-04T15:23:58.697Z,12.30
2023-01-04T15:29:00.007Z,17.90
2023-01-04T15:34:01.921Z,13.90
2023-01-04T15:39:04.815Z,12.50
2023-01-04T15:44:09.795Z,13.60
2023-01-04T15:49:16.890Z,12.30
2023-01-04T15:54:20.925Z,9.40
2023-01-04T15:59:22.711Z,9.80
2023-01-04T16:04:24.080Z,13.70
2023-01-04T16:09:25.440Z,9.90
2023-01-04T16:14:27.036Z,11.50
2023-01-04T16:19:31.419Z,12.60
2023-01-04T16:29:54.085Z,8.80
2023-01-04T16:34:55.435Z,14.20
2023-01-04T16:40:12.297Z,9.40
2023-01-04T16:45:14.619Z,8.60
2023-01-04T16:50:16.267Z,13.80
2023-01-04T16:55:23.626Z,10.60
2023-01-04T17:00:25.513Z,10.70
2023-01-04T17:05:26.747Z,9.50
2023-01-04T17:10:29.855Z,11.10
2023-01-04T17:15:42.811Z,9.20
2023-01-04T17:20:52.766Z,5.90
2023-01-04T17:26:00.618Z,10.70
2023-01-04T17:31:13.785Z,9.10
2023-01-04T17:36:17.406Z,7.80
2023-01-04T17:41:22.492Z,7.50
2023-01-04T17:46:24.212Z,10.00
2023-01-04T17:51:27.101Z,10.10
2023-01-04T17:56:32.208Z,7.90
2023-01-04T18:01:34.958Z,8.40
2023-01-04T18:06:36.886Z,10.20
2023-01-04T18:11:38.438Z,7.40
2023-01-04T18:16:55.087Z,6.90
2023-01-04T18:21:57.589Z,6.90
2023-01-04T18:27:21.000Z,8.40
2023-01-04T18:32:22.632Z,7.50
2023-01-04T18:37:23.905Z,6.20
2023-01-04T18:42:25.091Z,5.10
2023-01-04T18:47:27.292Z,6.70
2023-01-04T18:52:28.533Z,6.30
2023-01-04T18:57:29.907Z,8.00
2023-01-04T19:02:31.356Z,5.30
2023-01-04T19:07:40.115Z,5.90
2023-01-04T19:12:43.454Z,6.10
2023-01-04T19:17:44.974Z,6.10
2023-01-04T19:22:46.323Z,6.30
2023-01-04T19:27:47.682Z,15.20
2023-01-04T19:32:49.006Z,13.60
2023-01-04T19:37:50.549Z,13.50
2023-01-04T19:42:51.789Z,13.70
2023-01-04T19:47:53.427Z,17.00
2023-01-04T19:52:54.720Z,22.70
2023-01-04T19:57:56.375Z,16.30
2023-01-04T20:02:57.869Z,17.10
2023-01-04T20:07:59.437Z,14.70
2023-01-04T20:13:01.092Z,16.40
2023-01-04T20:18:02.592Z,11.70
2023-01-04T20:23:05.145Z,10.00
2023-01-04T20:28:06.436Z,6.80
2023-01-04T20:33:08.924Z,6.50
2023-01-04T20:38:11.476Z,6.70
2023-01-04T20:43:30.824Z,7.40
2023-01-04T20:48:32.183Z,7.80
2023-01-04T20:53:35.640Z,7.90
2023-01-04T20:58:38.110Z,6.60
2023-01-04T21:03:40.992Z,6.30
2023-01-04T21:08:45.071Z,6.70
2023-01-04T21:13:46.906Z,6.50
2023-01-04T21:18:48.307Z,7.70
2023-01-04T21:23:56.173Z,6.90
2023-01-04T21:28:59.109Z,6.60
2023-01-04T21:34:01.329Z,5.90
2023-01-04T21:39:03.005Z,6.30
2023-01-04T21:44:04.494Z,7.10
2023-01-04T21:49:06.021Z,6.10
2023-01-04T21:54:07.644Z,8.80
2023-01-04T21:59:09.063Z,9.20
2023-01-04T22:04:10.398Z,7.40
2023-01-04T22:09:12.060Z,7.50
2023-01-04T22:14:14.516Z,7.50
2023-01-04T22:19:15.817Z,8.30
2023-01-04T22:24:17.456Z,8.20
2023-01-04T22:29:20.501Z,5.50
2023-01-04T22:34:24.136Z,7.30
2023-01-04T22:39:25.440Z,9.30
2023-01-04T22:44:26.827Z,7.20
2023-01-04T22:49:28.191Z,7.80
2023-01-04T22:54:32.391Z,6.60
2023-01-04T22:59:33.689Z,8.20
2023-01-04T23:04:34.987Z,6.80
2023-01-04T23:09:36.284Z,7.30
2023-01-04T23:14:37.858Z,7.50
2023-01-04T23:19:39.171Z,7.30
2023-01-04T23:24:41.577Z,7.60
2023-01-04T23:29:43.443Z,7.60
2023-01-04T23:34:44.731Z,9.30
2023-01-04T23:39:48.131Z,6.90
2023-01-04T23:44:49.388Z,6.20
2023-01-04T23:49:50.626Z,5.70
2023-01-04T23:54:51.809Z,6.60
2023-01-04T23:59:53.674Z,5.80
